Time;durP1;ratioP1;P1;durP2;ratioP2;P2;SDS_P1;SDS_P2;PMS_P1;PMS_P2;Temp;Humidity;BMP_temperature;BMP_pressure;BME280_temperature;BME280_humidity;BME280_pressure;Samples;Min_cycle;Max_cycle;Signal;HPM_P1;HPM_P2
2021/10/26 00:01:18;;;;;;;;;;;2.90;99.90;;;;;;8397058;28;20394;-62
2021/10/26 00:05:18;;;;;;;;;;;3.00;99.90;;;;;;8397077;28;19912;-63
2021/10/26 00:09:19;;;;;;;;;;;2.80;99.90;;;;;;8396595;28;19909;-63
2021/10/26 00:13:20;;;;;;;;;;;2.70;99.90;;;;;;8396209;28;19942;-63
2021/10/26 00:17:21;;;;;;;;;;;2.70;99.90;;;;;;8395786;28;19948;-63
2021/10/26 00:21:21;;;;;;;;;;;2.80;99.90;;;;;;8396113;28;19912;-63
2021/10/26 00:25:22;;;;;;;;;;;2.70;99.90;;;;;;8396342;28;20345;-63
2021/10/26 00:29:22;;;;;;;;;;;2.50;99.90;;;;;;8395706;28;19904;-63
2021/10/26 00:33:23;;;;;;;;;;;2.40;99.90;;;;;;8377995;28;19918;-62
2021/10/26 00:37:23;;;;;;;;;;;2.30;99.90;;;;;;8378088;28;19911;-62
2021/10/26 00:41:25;;;;;;;;;;;2.30;99.90;;;;;;8395674;28;20313;-62
2021/10/26 00:45:26;;;;;;;;;;;2.20;99.90;;;;;;8395217;28;19904;-63
2021/10/26 00:49:26;;;;;;;;;;;2.00;99.90;;;;;;8395436;28;20334;-62
2021/10/26 00:53:26;;;;;;;;;;;2.20;99.90;;;;;;8395599;28;19908;-63
2021/10/26 00:57:28;;;;;;;;;;;2.30;99.90;;;;;;8395067;28;19958;-62
2021/10/26 01:01:28;;;;;;;;;;;2.20;99.90;;;;;;8394981;28;19904;-63
2021/10/26 01:05:29;;;;;;;;;;;2.30;99.90;;;;;;8377030;28;19908;-63
2021/10/26 01:09:29;;;;;;;;;;;2.40;99.90;;;;;;8394620;28;19994;-62
2021/10/26 01:13:30;;;;;;;;;;;2.50;99.90;;;;;;8376599;28;20058;-63
2021/10/26 01:17:31;;;;;;;;;;;2.50;99.90;;;;;;8394397;28;20330;-63
2021/10/26 01:21:31;;;;;;;;;;;2.70;99.90;;;;;;8376291;28;19999;-62
2021/10/26 01:25:31;;;;;;;;;;;2.90;99.90;;;;;;8394380;28;19904;-62
2021/10/26 01:29:32;;;;;;;;;;;2.80;99.90;;;;;;8393938;28;19904;-62
2021/10/26 01:33:33;;;;;;;;;;;2.70;99.90;;;;;;8394164;28;19913;-62
2021/10/26 01:37:33;;;;;;;;;;;2.70;99.90;;;;;;8394197;28;19912;-62
2021/10/26 01:41:34;;;;;;;;;;;2.60;99.90;;;;;;8393953;28;19995;-62
2021/10/26 01:45:34;;;;;;;;;;;2.80;99.90;;;;;;8394120;28;19905;-62
2021/10/26 01:49:35;;;;;;;;;;;2.80;99.90;;;;;;8393412;28;19904;-62
2021/10/26 01:53:35;;;;;;;;;;;2.90;99.90;;;;;;8375550;28;19935;-62
2021/10/26 01:57:36;;;;;;;;;;;3.00;99.90;;;;;;8393437;28;19911;-63
2021/10/26 02:01:37;;;;;;;;;;;2.90;99.90;;;;;;8393605;28;19911;-62
2021/10/26 02:05:37;;;;;;;;;;;3.10;99.90;;;;;;8375830;28;19930;-62
2021/10/26 02:09:38;;;;;;;;;;;3.10;99.90;;;;;;8393167;28;19995;-62
2021/10/26 02:13:39;;;;;;;;;;;2.90;99.90;;;;;;8375309;28;20383;-62
2021/10/26 02:17:40;;;;;;;;;;;2.90;99.90;;;;;;8393388;28;19942;-62
2021/10/26 02:21:40;;;;;;;;;;;2.70;99.90;;;;;;8374705;28;20026;-62
2021/10/26 02:25:41;;;;;;;;;;;2.60;99.90;;;;;;8393253;28;19911;-62
2021/10/26 02:29:41;;;;;;;;;;;2.60;99.90;;;;;;8392815;28;19991;-62
2021/10/26 02:33:42;;;;;;;;;;;2.50;99.90;;;;;;8392865;28;19919;-62
2021/10/26 02:37:42;;;;;;;;;;;2.60;99.90;;;;;;8375033;28;19934;-62
2021/10/26 02:41:43;;;;;;;;;;;2.70;99.90;;;;;;8377813;28;19912;-62
2021/10/26 02:45:43;;;;;;;;;;;2.70;99.90;;;;;;8399520;28;19905;-62
2021/10/26 02:49:44;;;;;;;;;;;2.80;99.90;;;;;;8380862;28;19904;-62
2021/10/26 02:53:44;;;;;;;;;;;2.70;99.90;;;;;;8399053;28;19908;-62
2021/10/26 02:57:46;;;;;;;;;;;2.80;99.90;;;;;;8380782;28;19958;-61
2021/10/26 03:01:46;;;;;;;;;;;2.60;99.90;;;;;;8398620;28;19912;-62
2021/10/26 03:05:47;;;;;;;;;;;2.50;99.90;;;;;;8398810;28;20415;-62
2021/10/26 03:09:47;;;;;;;;;;;2.60;99.90;;;;;;8398174;28;19905;-62
2021/10/26 03:13:48;;;;;;;;;;;2.70;99.90;;;;;;8398365;28;19997;-62
2021/10/26 03:17:49;;;;;;;;;;;2.60;99.90;;;;;;8398492;28;19958;-62
2021/10/26 03:21:49;;;;;;;;;;;2.50;99.90;;;;;;8380013;28;19915;-63
2021/10/26 03:25:50;;;;;;;;;;;2.50;99.90;;;;;;8397827;28;19911;-62
2021/10/26 03:29:50;;;;;;;;;;;2.50;99.90;;;;;;8397345;28;20003;-62
2021/10/26 03:33:51;;;;;;;;;;;2.60;99.90;;;;;;8378871;28;19966;-62
2021/10/26 03:37:51;;;;;;;;;;;2.60;99.90;;;;;;8375814;28;19908;-62
2021/10/26 03:41:52;;;;;;;;;;;2.50;99.90;;;;;;8375206;28;20280;-62
2021/10/26 03:45:52;;;;;;;;;;;2.50;99.90;;;;;;8394879;28;19954;-62
2021/10/26 03:49:53;;;;;;;;;;;2.70;99.90;;;;;;8378134;28;19927;-62
2021/10/26 03:53:53;;;;;;;;;;;2.90;99.90;;;;;;8402450;28;20040;-62
2021/10/26 03:57:54;;;;;;;;;;;3.20;99.90;;;;;;8416724;28;19905;-62
2021/10/26 04:01:54;;;;;;;;;;;3.50;99.90;;;;;;8378752;28;19911;-62
2021/10/26 04:06:00;;;;;;;;;;;3.60;99.90;;;;;;8405055;28;19904;-62
2021/10/26 04:10:05;;;;;;;;;;;3.70;99.90;;;;;;8424066;28;19947;-63
2021/10/26 04:14:05;;;;;;;;;;;3.80;99.90;;;;;;8430105;28;19961;-62
2021/10/26 04:18:06;;;;;;;;;;;3.90;99.90;;;;;;8394197;28;20360;-62
2021/10/26 04:22:09;;;;;;;;;;;4.10;99.90;;;;;;8396531;28;20007;-62
2021/10/26 04:26:10;;;;;;;;;;;4.20;99.90;;;;;;8395813;28;19913;-62
2021/10/26 04:30:10;;;;;;;;;;;4.40;99.90;;;;;;8395501;28;19908;-62
2021/10/26 04:34:11;;;;;;;;;;;4.60;99.90;;;;;;8394783;28;19943;-62
2021/10/26 04:38:11;;;;;;;;;;;4.70;99.90;;;;;;8424128;28;19912;-62
2021/10/26 04:42:12;;;;;;;;;;;4.60;99.90;;;;;;8427190;28;19915;-62
2021/10/26 04:46:12;;;;;;;;;;;4.60;99.90;;;;;;8418249;28;19908;-63
2021/10/26 04:50:13;;;;;;;;;;;4.70;99.90;;;;;;8375928;28;20285;-63
2021/10/26 04:54:14;;;;;;;;;;;4.70;99.90;;;;;;8412795;28;19956;-62
2021/10/26 04:58:14;;;;;;;;;;;4.70;99.90;;;;;;8393580;28;20288;-63
2021/10/26 05:02:15;;;;;;;;;;;4.90;99.90;;;;;;8388942;28;19923;-63
2021/10/26 05:06:15;;;;;;;;;;;4.90;99.90;;;;;;8416680;28;20299;-67
2021/10/26 05:10:16;;;;;;;;;;;4.90;99.90;;;;;;8401308;28;20356;-68
2021/10/26 05:14:16;;;;;;;;;;;4.90;99.90;;;;;;8397324;28;19912;-67
2021/10/26 05:18:18;;;;;;;;;;;4.80;99.90;;;;;;8427689;28;19904;-67
2021/10/26 05:22:19;;;;;;;;;;;4.80;99.90;;;;;;8427356;28;19912;-68
2021/10/26 05:26:19;;;;;;;;;;;4.70;99.90;;;;;;8382622;28;19995;-65
2021/10/26 05:30:20;;;;;;;;;;;5.00;99.90;;;;;;8398338;28;20408;-65
2021/10/26 05:34:22;;;;;;;;;;;5.00;99.90;;;;;;8392544;28;20291;-65
2021/10/26 05:38:23;;;;;;;;;;;5.00;99.90;;;;;;8375996;28;19987;-65
2021/10/26 05:42:23;;;;;;;;;;;4.90;99.90;;;;;;8395606;28;19935;-65
2021/10/26 05:46:24;;;;;;;;;;;4.90;99.90;;;;;;8393474;28;19993;-64
2021/10/26 05:50:24;;;;;;;;;;;5.00;99.90;;;;;;8393441;28;19909;-65
2021/10/26 05:54:25;;;;;;;;;;;5.00;99.90;;;;;;8393072;28;19908;-65
2021/10/26 05:58:26;;;;;;;;;;;5.40;99.90;;;;;;8393121;28;20017;-65
2021/10/26 06:02:26;;;;;;;;;;;5.20;99.90;;;;;;8408363;28;19923;-64
2021/10/26 06:06:27;;;;;;;;;;;5.20;99.90;;;;;;8402115;28;20454;-64
2021/10/26 06:10:28;;;;;;;;;;;5.30;99.90;;;;;;8426251;28;19904;-65
2021/10/26 06:14:29;;;;;;;;;;;5.30;99.90;;;;;;8426526;28;19989;-64
2021/10/26 06:18:30;;;;;;;;;;;5.40;99.90;;;;;;8432961;28;20020;-65
2021/10/26 06:22:30;;;;;;;;;;;5.30;99.90;;;;;;8409863;28;20003;-65
2021/10/26 06:26:32;;;;;;;;;;;5.30;99.90;;;;;;8382880;28;19917;-64
2021/10/26 06:30:33;;;;;;;;;;;5.40;99.90;;;;;;8396206;28;19999;-64
2021/10/26 06:34:33;;;;;;;;;;;5.50;99.90;;;;;;8397562;28;19912;-64
2021/10/26 06:38:34;;;;;;;;;;;5.50;99.90;;;;;;8401376;28;19915;-64
2021/10/26 06:42:34;;;;;;;;;;;5.60;99.90;;;;;;8430094;28;20274;-64
2021/10/26 06:46:35;;;;;;;;;;;5.80;99.90;;;;;;8414886;28;20375;-64
2021/10/26 06:50:35;;;;;;;;;;;5.90;99.90;;;;;;8421786;28;20445;-65
2021/10/26 06:54:36;;;;;;;;;;;6.10;99.90;;;;;;8397163;28;19935;-65
2021/10/26 06:58:36;;;;;;;;;;;6.10;99.90;;;;;;8397416;28;19912;-65
2021/10/26 07:02:46;;;;;;;;;;;6.10;99.90;;;;;;8397482;28;19908;-65
2021/10/26 07:06:47;;;;;;;;;;;6.10;99.90;;;;;;8400899;28;19999;-65
2021/10/26 07:10:48;;;;;;;;;;;6.20;99.90;;;;;;8388686;28;19908;-65
2021/10/26 07:14:49;;;;;;;;;;;6.40;99.90;;;;;;8431674;28;20016;-64
2021/10/26 07:18:49;;;;;;;;;;;6.50;99.90;;;;;;8403583;28;19913;-65
2021/10/26 07:22:50;;;;;;;;;;;6.70;99.90;;;;;;8379843;28;19912;-65
2021/10/26 07:26:51;;;;;;;;;;;6.70;99.90;;;;;;8399730;28;20391;-64
2021/10/26 07:30:51;;;;;;;;;;;6.70;99.90;;;;;;8390294;28;19962;-64
2021/10/26 07:34:52;;;;;;;;;;;7.00;99.90;;;;;;8397658;28;19915;-64
2021/10/26 07:38:59;;;;;;;;;;;7.30;99.90;;;;;;8424614;28;19911;-64
2021/10/26 07:42:59;;;;;;;;;;;7.60;99.90;;;;;;8430673;28;20605;-64
2021/10/26 07:47:00;;;;;;;;;;;7.90;99.90;;;;;;8381884;28;19912;-64
2021/10/26 07:51:02;;;;;;;;;;;8.20;99.90;;;;;;8417059;28;19908;-66
2021/10/26 07:55:04;;;;;;;;;;;8.60;99.90;;;;;;8396128;28;19919;-65
2021/10/26 07:59:05;;;;;;;;;;;9.10;99.90;;;;;;8377089;28;19904;-65
2021/10/26 08:03:06;;;;;;;;;;;9.40;99.90;;;;;;8395799;28;19912;-64
2021/10/26 08:07:07;;;;;;;;;;;9.70;99.90;;;;;;8378201;28;19965;-64
2021/10/26 08:11:07;;;;;;;;;;;9.80;99.90;;;;;;8394929;28;19912;-65
2021/10/26 08:15:08;;;;;;;;;;;9.90;99.90;;;;;;8395338;28;19995;-65
2021/10/26 08:19:08;;;;;;;;;;;9.90;99.90;;;;;;8395396;28;20280;-65
2021/10/26 08:23:09;;;;;;;;;;;9.80;99.90;;;;;;8395036;28;19995;-66
2021/10/26 08:27:13;;;;;;;;;;;9.70;99.90;;;;;;8395424;28;19904;-66
2021/10/26 08:31:27;;;;;;;;;;;9.60;99.90;;;;;;8394112;28;19912;-65
2021/10/26 08:35:29;;;;;;;;;;;9.50;99.90;;;;;;8397098;28;19960;-65
2021/10/26 08:39:30;;;;;;;;;;;9.60;99.90;;;;;;8393921;28;19916;-65
2021/10/26 08:43:30;;;;;;;;;;;9.70;99.90;;;;;;8377090;28;20368;-65
2021/10/26 08:47:31;;;;;;;;;;;9.90;99.90;;;;;;8394789;28;19927;-65
2021/10/26 08:51:31;;;;;;;;;;;10.10;99.90;;;;;;8394385;28;20331;-65
2021/10/26 08:55:38;;;;;;;;;;;10.00;99.90;;;;;;8414057;28;19912;-65
2021/10/26 08:59:38;;;;;;;;;;;10.00;99.90;;;;;;8376131;28;19938;-66
2021/10/26 09:03:39;;;;;;;;;;;10.00;99.90;;;;;;8393072;28;19904;-65
2021/10/26 09:07:40;;;;;;;;;;;10.10;99.90;;;;;;8393969;28;20418;-66
2021/10/26 09:16:42;;;;;;;;;;;10.30;99.90;;;;;;8400835;28;20129;-65
2021/10/26 09:20:48;;;;;;;;;;;10.60;99.90;;;;;;8376476;28;19904;-66
2021/10/26 09:25:03;;;;;;;;;;;11.10;99.90;;;;;;8421605;28;20328;-66
2021/10/26 09:29:03;;;;;;;;;;;11.40;99.90;;;;;;8403781;28;19915;-65
2021/10/26 09:33:07;;;;;;;;;;;11.50;99.90;;;;;;8392915;28;19916;-65
2021/10/26 09:37:08;;;;;;;;;;;11.50;99.90;;;;;;8388624;28;20299;-65
2021/10/26 09:41:09;;;;;;;;;;;11.70;99.90;;;;;;8391999;28;19904;-65
2021/10/26 09:45:12;;;;;;;;;;;12.00;99.90;;;;;;8392438;28;19912;-64
2021/10/26 09:49:23;;;;;;;;;;;12.30;99.90;;;;;;8382779;28;19977;-65
2021/10/26 09:53:30;;;;;;;;;;;12.40;99.90;;;;;;8373986;28;20307;-65
2021/10/26 09:57:35;;;;;;;;;;;12.00;99.90;;;;;;8393031;28;19905;-65
2021/10/26 10:01:36;;;;;;;;;;;12.20;99.90;;;;;;8393933;28;20302;-65
2021/10/26 10:05:40;;;;;;;;;;;12.20;99.90;;;;;;8394511;28;19939;-65
2021/10/26 10:09:43;;;;;;;;;;;12.10;99.90;;;;;;8388803;28;20025;-65
2021/10/26 10:13:47;;;;;;;;;;;12.30;99.90;;;;;;8399172;28;19908;-65
2021/10/26 10:17:47;;;;;;;;;;;12.40;99.90;;;;;;8400021;28;20403;-66
2021/10/26 10:21:50;;;;;;;;;;;13.10;99.90;;;;;;8403907;28;19908;-65
2021/10/26 10:25:53;;;;;;;;;;;13.40;99.90;;;;;;8426094;28;19999;-65
2021/10/26 10:29:54;;;;;;;;;;;12.70;99.90;;;;;;8399874;28;19958;-65
2021/10/26 10:33:57;;;;;;;;;;;12.50;99.90;;;;;;8413021;28;19951;-65
2021/10/26 10:38:00;;;;;;;;;;;12.50;99.90;;;;;;8398055;28;19928;-65
2021/10/26 10:42:25;;;;;;;;;;;12.60;99.90;;;;;;8380694;28;19915;-66
2021/10/26 10:46:37;;;;;;;;;;;13.10;99.90;;;;;;8368985;28;20380;-66
2021/10/26 10:50:38;;;;;;;;;;;15.10;99.90;;;;;;8372815;28;19951;-66
2021/10/26 16:24:35;;;;;;;;;;;11.50;99.90;;;;;;8385628;28;19918;-64
2021/10/26 16:28:35;;;;;;;;;;;11.30;99.90;;;;;;8391371;28;20415;-64
2021/10/26 16:32:36;;;;;;;;;;;11.30;99.90;;;;;;8381606;28;19920;-64
2021/10/26 16:36:36;;;;;;;;;;;11.10;99.90;;;;;;8358357;28;19962;-64
2021/10/26 16:40:38;;;;;;;;;;;11.10;99.90;;;;;;8360195;28;19909;-63
2021/10/26 16:44:52;;;;;;;;;;;11.20;99.90;;;;;;8378551;28;20001;-64
2021/10/26 16:48:53;;;;;;;;;;;11.20;99.90;;;;;;8369043;28;19918;-63
2021/10/26 16:52:54;;;;;;;;;;;11.10;99.90;;;;;;8389913;28;19927;-64
2021/10/26 16:56:55;;;;;;;;;;;10.80;99.90;;;;;;8373222;28;19919;-64
2021/10/26 17:00:55;;;;;;;;;;;10.50;99.90;;;;;;8384091;28;19912;-63
2021/10/26 17:04:57;;;;;;;;;;;10.90;99.90;;;;;;8387216;28;19912;-64
2021/10/26 17:08:58;;;;;;;;;;;10.60;99.90;;;;;;8384126;28;19915;-64
2021/10/26 17:12:58;;;;;;;;;;;10.70;99.90;;;;;;8378695;28;19912;-63
2021/10/26 17:16:59;;;;;;;;;;;10.40;99.90;;;;;;8379862;28;19920;-64
2021/10/26 17:21:00;;;;;;;;;;;10.10;99.90;;;;;;8363456;28;19908;-64
2021/10/26 17:25:02;;;;;;;;;;;9.80;99.90;;;;;;8362183;28;19951;-64
2021/10/26 17:29:02;;;;;;;;;;;9.60;99.90;;;;;;8339430;28;19916;-64
2021/10/26 17:33:03;;;;;;;;;;;9.50;99.90;;;;;;8320399;28;1043694;-64
2021/10/26 17:37:07;;;;;;;;;;;9.40;99.90;;;;;;8359709;28;19947;-64
2021/10/26 17:41:10;;;;;;;;;;;9.50;99.90;;;;;;8350506;28;19917;-64
2021/10/26 17:45:14;;;;;;;;;;;9.70;99.90;;;;;;8374889;28;20182;-63
2021/10/26 17:49:15;;;;;;;;;;;9.60;99.90;;;;;;8363741;28;19909;-64
2021/10/26 17:53:15;;;;;;;;;;;9.20;99.90;;;;;;8357492;28;19999;-63
2021/10/26 17:57:16;;;;;;;;;;;8.90;99.90;;;;;;8353871;28;19920;-64
2021/10/26 18:01:18;;;;;;;;;;;8.80;99.90;;;;;;8375768;28;19908;-64
2021/10/26 18:05:18;;;;;;;;;;;8.70;99.90;;;;;;8370395;28;19952;-64
2021/10/26 18:09:19;;;;;;;;;;;8.90;99.90;;;;;;8343407;28;20338;-63
2021/10/26 18:13:20;;;;;;;;;;;8.80;99.90;;;;;;8389122;22;19924;-65
2021/10/26 18:17:21;;;;;;;;;;;8.90;99.90;;;;;;8362185;28;20005;-65
2021/10/26 18:21:22;;;;;;;;;;;8.80;99.90;;;;;;8371088;28;19912;-65
2021/10/26 18:25:23;;;;;;;;;;;8.60;99.90;;;;;;8331635;28;19973;-66
2021/10/26 18:29:24;;;;;;;;;;;8.30;99.90;;;;;;8321563;28;19909;-65
2021/10/26 18:33:25;;;;;;;;;;;8.10;99.90;;;;;;8319322;28;19968;-65
2021/10/26 18:37:26;;;;;;;;;;;8.00;99.90;;;;;;8302817;28;20008;-66
2021/10/26 18:41:29;;;;;;;;;;;7.90;99.90;;;;;;8322096;28;19980;-65
2021/10/26 18:45:34;;;;;;;;;;;7.70;99.90;;;;;;8321982;28;19951;-65
2021/10/26 18:49:35;;;;;;;;;;;7.50;99.90;;;;;;8303507;28;19924;-65
2021/10/26 18:53:35;;;;;;;;;;;7.50;99.90;;;;;;8320851;28;19944;-66
2021/10/26 18:57:36;;;;;;;;;;;7.40;99.90;;;;;;8320391;28;20001;-65
2021/10/26 19:01:37;;;;;;;;;;;7.30;99.90;;;;;;8320422;28;19976;-66
2021/10/26 19:05:42;;;;;;;;;;;7.30;99.90;;;;;;8319262;28;19959;-65
2021/10/26 19:09:43;;;;;;;;;;;7.40;99.90;;;;;;8321032;28;19908;-65
2021/10/26 19:13:45;;;;;;;;;;;7.50;99.90;;;;;;8322693;28;19921;-65
2021/10/26 19:17:45;;;;;;;;;;;7.40;99.90;;;;;;8321274;28;19944;-65
2021/10/26 19:21:47;;;;;;;;;;;7.50;99.90;;;;;;8322249;28;19940;-65
2021/10/26 19:25:48;;;;;;;;;;;7.20;99.90;;;;;;8327769;28;19909;-65
2021/10/26 19:29:48;;;;;;;;;;;7.00;99.90;;;;;;8310949;28;19913;-65
2021/10/26 19:33:50;;;;;;;;;;;7.00;99.90;;;;;;8327146;28;19909;-66
2021/10/26 19:37:51;;;;;;;;;;;7.10;99.90;;;;;;8327143;28;20369;-66
2021/10/26 19:41:52;;;;;;;;;;;6.80;99.90;;;;;;8327053;28;19917;-65
2021/10/26 19:45:52;;;;;;;;;;;6.60;99.90;;;;;;8326036;28;20424;-65
2021/10/26 19:49:54;;;;;;;;;;;6.50;99.90;;;;;;8306024;28;19948;-65
2021/10/26 19:53:55;;;;;;;;;;;6.40;99.90;;;;;;8324357;28;20442;-65
2021/10/26 19:57:55;;;;;;;;;;;6.30;99.90;;;;;;8329850;28;19913;-65
2021/10/26 20:01:56;;;;;;;;;;;6.40;99.90;;;;;;8326332;28;20004;-66
2021/10/26 20:05:56;;;;;;;;;;;6.30;99.90;;;;;;8326694;28;19925;-64
2021/10/26 20:09:57;;;;;;;;;;;6.40;99.90;;;;;;8325781;28;19908;-65
2021/10/26 20:14:01;;;;;;;;;;;6.70;99.90;;;;;;8326571;28;20336;-65
2021/10/26 20:18:03;;;;;;;;;;;6.50;99.90;;;;;;8309256;28;19916;-65
2021/10/26 20:26:21;;;;;;;;;;;6.10;99.90;;;;;;8326483;28;20432;-65
2021/10/26 20:30:24;;;;;;;;;;;6.00;99.90;;;;;;8293868;28;19966;-65
2021/10/26 20:34:24;;;;;;;;;;;6.00;99.90;;;;;;8274700;28;19913;-65
2021/10/26 20:38:25;;;;;;;;;;;5.90;99.90;;;;;;8323687;28;19987;-65
2021/10/26 20:42:25;;;;;;;;;;;5.90;99.90;;;;;;8326607;28;20292;-65
2021/10/26 20:46:26;;;;;;;;;;;5.80;99.90;;;;;;8326330;28;19915;-65
2021/10/26 20:50:30;;;;;;;;;;;5.90;99.90;;;;;;8325772;28;19913;-65
2021/10/26 20:54:34;;;;;;;;;;;6.30;99.90;;;;;;8304739;28;19921;-65
2021/10/26 20:58:35;;;;;;;;;;;6.10;99.90;;;;;;8326267;28;20365;-64
2021/10/26 21:02:36;;;;;;;;;;;5.90;99.90;;;;;;8326647;28;19924;-65
2021/10/26 21:06:37;;;;;;;;;;;5.70;99.90;;;;;;8328168;28;20369;-65
2021/10/26 21:10:37;;;;;;;;;;;5.90;99.90;;;;;;8328178;28;19979;-65
2021/10/26 21:14:38;;;;;;;;;;;5.80;99.90;;;;;;8310155;28;19920;-65
2021/10/26 21:18:39;;;;;;;;;;;5.60;99.90;;;;;;8310730;28;19960;-65
2021/10/26 21:22:41;;;;;;;;;;;5.50;99.90;;;;;;8328584;28;20271;-65
2021/10/26 21:26:42;;;;;;;;;;;5.60;99.90;;;;;;8327414;28;20365;-65
2021/10/26 21:30:43;;;;;;;;;;;5.50;99.90;;;;;;8327621;28;19909;-66
2021/10/26 21:34:48;;;;;;;;;;;5.30;99.90;;;;;;8326822;28;20321;-65
2021/10/26 21:38:49;;;;;;;;;;;5.20;99.90;;;;;;8327044;28;19912;-66
2021/10/26 21:42:49;;;;;;;;;;;5.10;99.90;;;;;;8327524;28;19983;-65
2021/10/26 21:46:50;;;;;;;;;;;5.20;99.90;;;;;;8326325;28;19908;-66
2021/10/26 21:50:50;;;;;;;;;;;5.00;99.90;;;;;;8309678;28;19905;-66
2021/10/26 21:54:50;;;;;;;;;;;5.00;99.90;;;;;;8327377;28;19916;-66
2021/10/26 21:58:51;;;;;;;;;;;5.10;99.90;;;;;;8309705;28;19967;-66
2021/10/26 22:02:52;;;;;;;;;;;5.30;99.90;;;;;;8327694;28;20369;-66
2021/10/26 22:06:53;;;;;;;;;;;5.00;99.90;;;;;;8309614;28;20289;-65
2021/10/26 22:10:53;;;;;;;;;;;5.00;99.90;;;;;;8308848;28;19947;-66
2021/10/26 22:14:54;;;;;;;;;;;5.00;99.90;;;;;;8327061;28;19919;-66
2021/10/26 22:18:54;;;;;;;;;;;4.90;99.90;;;;;;8326928;28;20122;-66
2021/10/26 22:22:55;;;;;;;;;;;4.80;99.90;;;;;;8309417;28;19912;-65
2021/10/26 22:26:55;;;;;;;;;;;4.80;99.90;;;;;;8326960;28;19913;-66
2021/10/26 22:30:55;;;;;;;;;;;4.70;99.90;;;;;;8326950;28;19909;-65
2021/10/26 22:34:56;;;;;;;;;;;4.70;99.90;;;;;;8326697;28;19963;-65
2021/10/26 22:38:57;;;;;;;;;;;4.60;99.90;;;;;;8309207;28;20364;-66
2021/10/26 22:43:00;;;;;;;;;;;4.50;99.90;;;;;;8326594;28;19905;-65
2021/10/26 22:47:00;;;;;;;;;;;4.60;99.90;;;;;;8326736;28;19912;-66
2021/10/26 22:51:01;;;;;;;;;;;4.80;99.90;;;;;;8326654;28;19956;-65
2021/10/26 22:55:02;;;;;;;;;;;4.90;99.90;;;;;;8326388;28;19909;-66
2021/10/26 22:59:03;;;;;;;;;;;4.70;99.90;;;;;;8329894;28;19997;-65
2021/10/26 23:03:03;;;;;;;;;;;4.40;99.90;;;;;;8333306;28;19905;-65
2021/10/26 23:07:04;;;;;;;;;;;4.50;99.90;;;;;;8332084;28;19909;-66
2021/10/26 23:11:04;;;;;;;;;;;4.50;99.90;;;;;;8331191;28;19920;-65
2021/10/26 23:15:05;;;;;;;;;;;4.30;99.90;;;;;;8331728;28;20399;-66
2021/10/26 23:19:05;;;;;;;;;;;4.40;99.90;;;;;;8332272;28;20415;-65
2021/10/26 23:23:06;;;;;;;;;;;4.40;99.90;;;;;;8332174;28;20397;-66
2021/10/26 23:27:06;;;;;;;;;;;4.10;99.90;;;;;;8331903;28;19916;-64
2021/10/26 23:31:07;;;;;;;;;;;4.10;99.90;;;;;;8331904;28;20296;-65
2021/10/26 23:35:08;;;;;;;;;;;4.10;99.90;;;;;;8314045;28;19991;-65
2021/10/26 23:39:08;;;;;;;;;;;4.30;99.90;;;;;;8331545;28;19915;-65
2021/10/26 23:43:09;;;;;;;;;;;4.40;99.90;;;;;;8331747;28;19905;-65
2021/10/26 23:47:10;;;;;;;;;;;4.30;99.90;;;;;;8331113;28;20383;-65
2021/10/26 23:51:11;;;;;;;;;;;4.50;99.90;;;;;;8313606;28;19905;-66
2021/10/26 23:55:11;;;;;;;;;;;4.40;99.90;;;;;;8331146;28;20001;-65
2021/10/26 23:59:12;;;;;;;;;;;4.40;99.90;;;;;;8330634;28;19905;-66
